Terminal Aerodrome Forecast
Issued by NWS Sioux Falls, SD

Home | Current Version | Previous Version | Text Only | Print | Product List | Glossary Off
Versions: 1 2 3 4 5 6 7 8 9 10 11 12

000
FTUS43 KFSD 210520
TAFFSD
TAF
KFSD 210520Z 2106/2206 03004KT P6SM OVC200
     FM211800 03012KT P6SM OVC080
     FM212200 03016G24KT P6SM OVC035
     FM220000 03015G24KT 3SM -SN BKN020
     FM220200 02018G26KT 1 1/2SM -SN BLSN OVC008=

USA.gov is the U.S. government's official web portal to all federal, state and local government web resources and services.